createdAt,value
2018-05-03T00:01:48.257Z,80.85
2018-05-03T00:04:15.873Z,80.68
2018-05-03T00:06:43.487Z,80.38
2018-05-03T00:09:11.105Z,80.48
2018-05-03T00:11:38.721Z,81.99
2018-05-03T00:14:06.293Z,83.17
2018-05-03T00:16:33.852Z,84.12
2018-05-03T00:19:01.421Z,84.48
2018-05-03T00:21:29.042Z,84.54
2018-05-03T00:23:56.653Z,84.52
2018-05-03T00:26:24.268Z,84.75
2018-05-03T00:28:51.828Z,84.71
2018-05-03T00:31:19.392Z,84.84
2018-05-03T00:33:47.013Z,85.09
2018-05-03T00:36:14.590Z,84.77
2018-05-03T00:38:42.151Z,84.33
2018-05-03T00:41:09.746Z,83.67
2018-05-03T00:43:37.354Z,83.37
2018-05-03T00:46:04.933Z,83.42
2018-05-03T00:48:32.488Z,83.64
2018-05-03T00:51:00.053Z,83.52
2018-05-03T00:53:27.677Z,83.52
2018-05-03T00:55:55.293Z,83.83
2018-05-03T00:58:22.904Z,83.90
2018-05-03T01:00:50.460Z,83.98
2018-05-03T01:03:18.020Z,84.31
2018-05-03T01:05:45.659Z,84.17
2018-05-03T01:08:13.227Z,84.74
2018-05-03T01:10:40.908Z,84.88
2018-05-03T01:13:08.469Z,84.86
2018-05-03T01:15:36.089Z,84.69
2018-05-03T01:18:03.713Z,84.54
2018-05-03T01:20:31.308Z,84.29
2018-05-03T01:22:58.937Z,84.00
2018-05-03T01:25:26.492Z,83.95
2018-05-03T01:27:54.108Z,83.91
2018-05-03T01:30:21.725Z,83.91
2018-05-03T01:32:49.349Z,84.03
2018-05-03T01:35:28.588Z,83.82
2018-05-03T01:37:56.148Z,83.69
2018-05-03T01:40:23.715Z,83.67
2018-05-03T01:42:51.284Z,83.42
2018-05-03T01:45:18.970Z,83.49
2018-05-03T01:47:46.528Z,83.72
2018-05-03T01:50:14.084Z,84.01
2018-05-03T01:52:41.653Z,84.16
2018-05-03T01:55:09.213Z,84.41
2018-05-03T01:57:36.780Z,84.47
2018-05-03T02:00:04.350Z,84.39
2018-05-03T02:02:32.040Z,84.76
2018-05-03T02:04:59.600Z,84.97
2018-05-03T02:07:27.216Z,85.15
2018-05-03T02:09:54.784Z,85.20
2018-05-03T02:12:22.344Z,85.43
2018-05-03T02:14:49.969Z,85.85
2018-05-03T02:17:17.513Z,85.96
2018-05-03T02:19:45.185Z,85.96
2018-05-03T02:22:12.829Z,86.30
2018-05-03T02:24:40.468Z,86.37
2018-05-03T02:27:08.096Z,86.14
2018-05-03T02:29:35.656Z,86.16
2018-05-03T02:32:03.287Z,86.33
2018-05-03T02:34:30.909Z,86.16
2018-05-03T02:36:58.589Z,85.87
2018-05-03T02:39:26.215Z,85.63
2018-05-03T02:41:53.842Z,85.52
2018-05-03T02:44:21.469Z,85.55
2018-05-03T02:46:49.029Z,85.45
2018-05-03T02:49:16.657Z,85.59
2018-05-03T02:51:44.287Z,85.67
2018-05-03T02:54:11.900Z,85.62
2018-05-03T02:56:39.517Z,85.66
2018-05-03T02:59:18.876Z,85.72
2018-05-03T03:01:58.094Z,86.02
2018-05-03T03:08:10.229Z,85.94
2018-05-03T03:14:21.723Z,86.03
2018-05-03T03:17:06.758Z,86.01
2018-05-03T03:19:55.557Z,85.98
2018-05-03T03:22:40.754Z,85.63
2018-05-03T03:28:36.661Z,85.05
2018-05-03T03:31:22.007Z,84.76
2018-05-03T03:34:01.478Z,84.60
2018-05-03T03:39:41.937Z,83.78
2018-05-03T03:42:21.341Z,83.67
2018-05-03T03:44:48.957Z,83.92
2018-05-03T03:47:16.518Z,84.01
2018-05-03T03:49:44.081Z,83.90
2018-05-03T03:52:11.647Z,83.38
2018-05-03T03:54:39.203Z,82.68
2018-05-03T03:57:06.768Z,82.56
2018-05-03T03:59:34.328Z,82.27
2018-05-03T04:02:02.033Z,81.78
2018-05-03T04:04:29.604Z,81.26
2018-05-03T04:06:57.165Z,80.66
2018-05-03T04:09:24.737Z,80.57
2018-05-03T04:11:52.300Z,79.95
2018-05-03T04:14:19.874Z,79.36
2018-05-03T04:16:47.428Z,78.93
2018-05-03T04:19:26.706Z,78.51
2018-05-03T04:22:06.098Z,77.19
2018-05-03T04:24:45.355Z,69.25
2018-05-03T04:27:12.916Z,63.06
2018-05-03T04:29:40.546Z,58.04
2018-05-03T04:32:08.161Z,54.84
2018-05-03T04:34:35.785Z,50.99
2018-05-03T04:37:03.371Z,49.41
2018-05-03T04:39:31.886Z,47.94
2018-05-03T04:41:59.456Z,45.51
2018-05-03T04:44:27.018Z,46.14
2018-05-03T04:46:54.668Z,46.04
2018-05-03T04:49:22.239Z,45.66
2018-05-03T04:51:49.909Z,45.57
2018-05-03T04:54:17.599Z,43.88
2018-05-03T04:56:45.125Z,42.78
2018-05-03T04:59:12.693Z,43.18
2018-05-03T05:01:40.249Z,41.98
2018-05-03T05:04:07.895Z,40.84
2018-05-03T05:06:35.521Z,40.75
2018-05-03T05:09:03.176Z,40.03
2018-05-03T05:11:30.737Z,39.54
2018-05-03T05:13:58.302Z,39.38
2018-05-03T05:16:25.868Z,39.68
2018-05-03T05:18:53.428Z,38.12
2018-05-03T05:21:21.056Z,39.87
2018-05-03T05:23:48.622Z,39.96
2018-05-03T05:26:16.338Z,39.85
2018-05-03T05:28:43.957Z,39.71
2018-05-03T05:31:11.509Z,39.31
2018-05-03T05:33:39.133Z,39.63
2018-05-03T05:36:06.745Z,38.76
2018-05-03T05:38:34.403Z,38.55
2018-05-03T05:41:02.021Z,38.36
2018-05-03T05:43:29.631Z,36.93
2018-05-03T05:45:57.248Z,37.30
2018-05-03T05:48:24.865Z,36.25
2018-05-03T05:50:52.432Z,35.69
2018-05-03T05:53:20.029Z,36.43
2018-05-03T05:55:47.655Z,37.38
2018-05-03T05:58:15.212Z,36.87
2018-05-03T06:00:42.893Z,35.63
2018-05-03T06:03:10.517Z,35.05
2018-05-03T06:05:38.069Z,33.81
2018-05-03T06:08:05.635Z,33.11
2018-05-03T06:10:33.185Z,33.82
2018-05-03T06:13:00.813Z,34.57
2018-05-03T06:15:28.371Z,33.16
2018-05-03T06:17:56.040Z,33.41
2018-05-03T06:20:23.616Z,34.89
2018-05-03T06:22:51.265Z,38.20
2018-05-03T06:25:18.889Z,41.10
2018-05-03T06:27:46.452Z,43.74
2018-05-03T06:30:14.078Z,47.31
2018-05-03T06:32:41.633Z,47.45
2018-05-03T06:35:09.262Z,48.24
2018-05-03T06:37:36.805Z,51.59
2018-05-03T06:40:04.377Z,50.89
2018-05-03T06:42:31.944Z,51.44
2018-05-03T06:44:59.555Z,50.13
2018-05-03T06:47:27.185Z,49.55
2018-05-03T06:49:54.724Z,47.75
2018-05-03T06:52:22.339Z,46.33
2018-05-03T06:54:49.892Z,44.38
2018-05-03T06:57:17.439Z,42.25
2018-05-03T06:59:45.061Z,42.19
2018-05-03T07:02:12.615Z,40.48
2018-05-03T07:04:40.180Z,40.25
2018-05-03T07:07:07.740Z,42.07
2018-05-03T07:09:35.413Z,43.79
2018-05-03T07:12:03.013Z,45.56
2018-05-03T07:14:30.564Z,47.54
2018-05-03T07:16:58.169Z,48.01
2018-05-03T07:19:25.786Z,48.65
2018-05-03T07:21:53.419Z,48.44
2018-05-03T07:24:20.994Z,50.36
2018-05-03T07:26:48.563Z,49.59
2018-05-03T07:29:16.187Z,50.47
2018-05-03T07:31:43.716Z,49.28
2018-05-03T07:34:11.351Z,49.39
2018-05-03T07:36:38.903Z,48.70
2018-05-03T07:39:06.511Z,48.11
2018-05-03T07:41:34.070Z,46.59
2018-05-03T07:44:01.629Z,47.75
2018-05-03T07:46:29.197Z,44.33
2018-05-03T07:48:56.821Z,43.52
2018-05-03T07:51:24.388Z,45.50
2018-05-03T07:53:51.949Z,44.66
2018-05-03T07:56:19.559Z,44.61
2018-05-03T07:58:47.116Z,44.88
2018-05-03T08:01:14.676Z,45.13
2018-05-03T08:03:42.252Z,45.98
2018-05-03T08:06:09.816Z,45.85
2018-05-03T08:08:37.380Z,45.67
2018-05-03T08:11:04.946Z,45.80
2018-05-03T08:13:32.589Z,47.14
2018-05-03T08:16:00.148Z,45.83
2018-05-03T08:18:27.808Z,49.88
2018-05-03T08:20:55.373Z,46.32
2018-05-03T08:23:22.937Z,45.22
2018-05-03T08:25:50.496Z,45.78
2018-05-03T08:28:18.048Z,45.65
2018-05-03T08:30:45.676Z,44.93
2018-05-03T08:33:13.233Z,44.93
2018-05-03T08:35:40.845Z,45.01
2018-05-03T08:38:08.473Z,45.33
2018-05-03T08:40:36.033Z,46.35
2018-05-03T08:43:03.661Z,44.99
2018-05-03T08:45:31.290Z,46.49
2018-05-03T08:47:58.958Z,44.94
2018-05-03T08:50:26.512Z,46.60
2018-05-03T08:52:54.076Z,44.92
2018-05-03T08:55:21.698Z,45.61
2018-05-03T08:57:49.264Z,43.90
2018-05-03T09:00:16.836Z,44.03
2018-05-03T09:02:44.398Z,44.43
2018-05-03T09:05:12.057Z,44.52
2018-05-03T09:07:39.705Z,44.50
2018-05-03T09:10:07.288Z,44.25
2018-05-03T09:12:34.853Z,44.89
2018-05-03T09:15:02.477Z,44.09
2018-05-03T09:17:30.118Z,44.32
2018-05-03T09:19:57.737Z,43.43
2018-05-03T09:22:25.456Z,44.03
2018-05-03T09:24:52.964Z,44.26
2018-05-03T09:27:20.540Z,45.10
2018-05-03T09:29:48.134Z,42.40
2018-05-03T09:32:15.754Z,43.48
2018-05-03T09:34:43.341Z,44.80
2018-05-03T09:37:10.901Z,43.74
2018-05-03T09:39:38.456Z,42.30
2018-05-03T09:42:06.030Z,42.95
2018-05-03T09:44:33.709Z,42.24
2018-05-03T09:47:01.403Z,40.56
2018-05-03T09:49:28.978Z,40.78
2018-05-03T09:51:56.598Z,39.82
2018-05-03T09:54:24.222Z,39.16
2018-05-03T09:56:51.766Z,38.52
2018-05-03T09:59:19.346Z,37.74
2018-05-03T10:01:46.978Z,37.25
2018-05-03T10:04:15.109Z,37.06
2018-05-03T10:06:42.662Z,37.96
2018-05-03T10:09:10.302Z,37.28
2018-05-03T10:11:37.925Z,38.22
2018-05-03T10:14:05.486Z,37.73
2018-05-03T10:16:33.048Z,38.30
2018-05-03T10:19:00.678Z,39.76
2018-05-03T10:21:28.292Z,37.59
2018-05-03T10:23:55.912Z,37.13
2018-05-03T10:26:23.529Z,37.49
2018-05-03T10:28:51.109Z,37.04
2018-05-03T10:31:18.649Z,37.06
2018-05-03T10:33:46.273Z,36.78
2018-05-03T10:36:13.959Z,35.30
2018-05-03T10:38:41.541Z,36.46
2018-05-03T10:41:09.100Z,34.41
2018-05-03T10:43:36.745Z,33.82
2018-05-03T10:46:04.345Z,33.25
2018-05-03T10:48:31.916Z,33.55
2018-05-03T10:50:59.484Z,31.92
2018-05-03T10:53:27.121Z,32.06
2018-05-03T10:55:54.676Z,31.80
2018-05-03T10:58:22.253Z,32.10
2018-05-03T11:00:49.808Z,31.83
2018-05-03T11:03:17.488Z,31.10
2018-05-03T11:05:45.068Z,30.50
2018-05-03T11:08:12.785Z,29.96
2018-05-03T11:10:40.345Z,29.19
2018-05-03T11:13:07.903Z,30.17
2018-05-03T11:15:35.469Z,28.56
2018-05-03T11:18:03.020Z,28.28
2018-05-03T11:20:30.597Z,27.88
2018-05-03T11:22:58.216Z,28.17
2018-05-03T11:25:25.902Z,28.62
2018-05-03T11:27:53.556Z,29.18
2018-05-03T11:30:21.116Z,28.83
2018-05-03T11:32:48.696Z,28.19
2018-05-03T11:35:16.263Z,29.12
2018-05-03T11:37:43.893Z,27.65
2018-05-03T11:40:11.461Z,27.82
2018-05-03T11:42:39.182Z,26.68
2018-05-03T11:45:06.717Z,26.69
2018-05-03T11:47:34.329Z,27.18
2018-05-03T11:50:01.953Z,26.55
2018-05-03T11:52:29.512Z,26.69
2018-05-03T11:54:57.137Z,27.19
2018-05-03T11:57:24.782Z,26.70
2018-05-03T11:59:52.392Z,27.05
2018-05-03T12:02:19.949Z,26.18
2018-05-03T12:04:47.569Z,26.47
2018-05-03T12:07:15.132Z,27.27
2018-05-03T12:09:42.684Z,26.31
2018-05-03T12:12:10.245Z,26.74
2018-05-03T12:14:37.807Z,27.11
2018-05-03T12:17:05.480Z,26.50
2018-05-03T12:19:33.055Z,25.94
2018-05-03T12:22:00.623Z,24.77
2018-05-03T12:24:28.229Z,25.46
2018-05-03T12:26:55.780Z,25.66
2018-05-03T12:29:23.405Z,25.75
2018-05-03T12:31:50.952Z,24.38
2018-05-03T12:34:18.569Z,26.46
2018-05-03T12:36:46.128Z,26.07
2018-05-03T12:39:13.684Z,25.71
2018-05-03T12:41:41.245Z,24.80
2018-05-03T12:44:08.863Z,24.63
2018-05-03T12:46:36.424Z,24.87
2018-05-03T12:49:03.984Z,25.11
2018-05-03T12:51:31.668Z,25.11
2018-05-03T12:53:59.238Z,24.87
2018-05-03T12:56:26.800Z,24.67
2018-05-03T12:58:54.380Z,24.20
2018-05-03T13:01:21.936Z,23.47
2018-05-03T13:03:49.552Z,24.38
2018-05-03T13:06:17.112Z,24.45
2018-05-03T13:08:44.672Z,24.50
2018-05-03T13:11:12.247Z,25.27
2018-05-03T13:13:39.804Z,25.69
2018-05-03T13:16:07.373Z,25.69
2018-05-03T13:18:34.916Z,27.39
2018-05-03T13:21:02.528Z,27.04
2018-05-03T13:23:30.100Z,26.98
2018-05-03T13:25:57.722Z,27.44
2018-05-03T13:28:25.292Z,25.75
2018-05-03T13:30:52.857Z,27.31
2018-05-03T13:33:20.424Z,28.24
2018-05-03T13:35:47.985Z,29.82
2018-05-03T13:38:15.605Z,28.76
2018-05-03T13:40:43.264Z,29.02
2018-05-03T13:43:10.888Z,27.94
2018-05-03T13:45:38.432Z,29.23
2018-05-03T13:48:06.021Z,27.73
2018-05-03T13:50:33.589Z,26.60
2018-05-03T13:53:01.144Z,27.51
2018-05-03T13:55:28.860Z,29.05
2018-05-03T13:57:56.417Z,31.35
2018-05-03T14:00:24.041Z,32.00
2018-05-03T14:02:51.624Z,32.85
2018-05-03T14:05:19.254Z,32.60
2018-05-03T14:07:46.820Z,26.96
2018-05-03T14:10:14.375Z,26.52
2018-05-03T14:12:42.064Z,28.59
2018-05-03T14:15:09.694Z,27.20
2018-05-03T14:17:37.252Z,27.04
2018-05-03T14:20:04.849Z,25.27
2018-05-03T14:22:32.420Z,28.40
2018-05-03T14:25:00.003Z,28.05
2018-05-03T14:27:27.561Z,28.28
2018-05-03T14:29:55.186Z,28.00
2018-05-03T14:32:22.740Z,27.17
2018-05-03T14:34:50.301Z,27.48
2018-05-03T14:37:17.942Z,27.20
2018-05-03T14:39:45.500Z,27.95
2018-05-03T14:42:13.069Z,27.74
2018-05-03T14:44:40.629Z,29.74
2018-05-03T14:47:08.266Z,30.52
2018-05-03T14:49:35.805Z,30.32
2018-05-03T14:52:03.360Z,28.89
2018-05-03T14:54:30.925Z,30.11
2018-05-03T14:56:58.504Z,30.17
2018-05-03T14:59:26.068Z,28.57
2018-05-03T15:01:53.629Z,30.88
2018-05-03T15:04:21.244Z,29.97
2018-05-03T15:06:48.805Z,31.83
2018-05-03T15:09:16.376Z,29.94
2018-05-03T15:11:43.965Z,30.06
2018-05-03T15:14:11.546Z,30.68
2018-05-03T15:16:39.090Z,30.51
2018-05-03T15:19:06.709Z,30.79
2018-05-03T15:21:34.429Z,31.33
2018-05-03T15:24:01.989Z,30.96
2018-05-03T15:26:29.610Z,31.47
2018-05-03T15:28:57.184Z,31.81
2018-05-03T15:31:24.741Z,32.47
2018-05-03T15:33:52.450Z,31.43
2018-05-03T15:36:19.972Z,31.71
2018-05-03T15:38:53.120Z,32.73
2018-05-03T15:41:20.670Z,32.90
2018-05-03T15:43:48.270Z,33.22
2018-05-03T15:46:15.837Z,32.93
2018-05-03T15:48:43.397Z,33.68
2018-05-03T15:51:11.022Z,33.58
2018-05-03T15:53:38.588Z,35.31
2018-05-03T15:56:06.220Z,35.20
2018-05-03T15:58:33.805Z,35.59
2018-05-03T16:01:01.364Z,35.80
2018-05-03T16:03:28.955Z,35.09
2018-05-03T16:05:56.515Z,34.51
2018-05-03T16:08:24.089Z,34.31
2018-05-03T16:10:51.710Z,34.99
2018-05-03T16:13:19.324Z,34.90
2018-05-03T16:15:46.900Z,34.52
2018-05-03T16:18:14.470Z,35.20
2018-05-03T16:20:42.043Z,35.66
2018-05-03T16:23:09.590Z,35.49
2018-05-03T16:25:37.161Z,36.39
2018-05-03T16:28:04.720Z,36.36
2018-05-03T16:30:32.398Z,36.90
2018-05-03T16:32:59.956Z,37.80
2018-05-03T16:35:27.601Z,37.56
2018-05-03T16:37:55.177Z,37.50
2018-05-03T16:40:22.746Z,38.45
2018-05-03T16:42:50.318Z,38.35
2018-05-03T16:45:17.872Z,39.21
2018-05-03T16:47:45.455Z,40.31
2018-05-03T16:50:13.025Z,40.53
2018-05-03T16:52:40.584Z,40.71
2018-05-03T16:55:08.160Z,39.78
2018-05-03T16:57:35.720Z,40.68
2018-05-03T17:00:03.339Z,40.88
2018-05-03T17:02:30.960Z,40.92
2018-05-03T17:04:58.579Z,41.21
2018-05-03T17:07:26.209Z,41.27
2018-05-03T17:09:53.751Z,41.44
2018-05-03T17:12:21.412Z,41.36
2018-05-03T17:14:48.976Z,41.12
2018-05-03T17:17:16.649Z,41.12
2018-05-03T17:19:44.208Z,40.87
2018-05-03T17:22:11.767Z,41.28
2018-05-03T17:24:39.342Z,42.11
2018-05-03T17:27:06.925Z,42.45
2018-05-03T17:29:34.497Z,43.15
2018-05-03T17:32:02.113Z,43.01
2018-05-03T17:34:29.728Z,43.14
2018-05-03T17:36:57.349Z,43.58
2018-05-03T17:39:24.932Z,44.12
2018-05-03T17:41:52.525Z,44.95
2018-05-03T17:44:20.215Z,45.78
2018-05-03T17:46:47.784Z,46.31
2018-05-03T17:49:15.336Z,46.43
2018-05-03T17:51:42.953Z,46.72
2018-05-03T17:54:10.512Z,46.89
2018-05-03T17:56:38.080Z,47.36
2018-05-03T17:59:05.644Z,47.61
2018-05-03T18:01:33.229Z,48.24
2018-05-03T18:04:00.797Z,48.82
2018-05-03T18:06:28.353Z,49.09
2018-05-03T18:08:56.033Z,49.29
2018-05-03T18:11:23.596Z,48.62
2018-05-03T18:13:51.217Z,48.93
2018-05-03T18:16:18.796Z,47.83
2018-05-03T18:18:46.360Z,47.94
2018-05-03T18:21:13.935Z,48.21
2018-05-03T18:23:41.561Z,47.45
2018-05-03T18:26:09.216Z,47.32
2018-05-03T18:28:36.781Z,48.50
2018-05-03T18:31:04.344Z,48.84
2018-05-03T18:33:31.973Z,48.71
2018-05-03T18:35:59.592Z,48.78
2018-05-03T18:38:27.226Z,49.14
2018-05-03T18:40:54.796Z,49.75
2018-05-03T18:43:22.409Z,49.98
2018-05-03T18:45:49.976Z,50.48
2018-05-03T18:48:17.615Z,50.69
2018-05-03T18:50:45.250Z,50.54
2018-05-03T18:53:12.818Z,50.49
2018-05-03T18:55:40.379Z,50.83
2018-05-03T18:58:07.984Z,51.39
2018-05-03T19:00:35.544Z,51.43
2018-05-03T19:03:03.133Z,51.76
2018-05-03T19:05:30.688Z,51.88
2018-05-03T19:07:58.318Z,52.76
2018-05-03T19:10:25.880Z,53.35
2018-05-03T19:12:53.497Z,54.11
2018-05-03T19:15:21.126Z,54.60
2018-05-03T19:17:48.816Z,54.88
2018-05-03T19:20:16.398Z,54.83
2018-05-03T19:22:44.018Z,55.20
2018-05-03T19:25:11.639Z,55.78
2018-05-03T19:27:39.278Z,56.17
2018-05-03T19:30:06.895Z,56.52
2018-05-03T19:32:34.456Z,57.61
2018-05-03T19:35:02.073Z,58.08
2018-05-03T19:37:29.701Z,57.75
2018-05-03T19:39:57.262Z,58.72
2018-05-03T19:42:24.876Z,59.05
2018-05-03T19:44:52.503Z,59.07
2018-05-03T19:47:20.061Z,59.12
2018-05-03T19:49:47.629Z,59.09
2018-05-03T19:52:15.220Z,58.68
2018-05-03T19:54:42.849Z,58.75
2018-05-03T19:57:10.422Z,59.04
2018-05-03T19:59:38.037Z,59.02
2018-05-03T20:02:05.614Z,59.64
2018-05-03T20:04:33.174Z,59.47
2018-05-03T20:07:00.747Z,59.83
2018-05-03T20:09:28.373Z,59.79
2018-05-03T20:11:55.944Z,59.53
2018-05-03T20:14:23.499Z,59.48
2018-05-03T20:16:51.129Z,59.85
2018-05-03T20:19:18.752Z,59.54
2018-05-03T20:21:46.370Z,59.54
2018-05-03T20:24:13.945Z,59.18
2018-05-03T20:26:41.505Z,58.97
2018-05-03T20:29:09.077Z,59.13
2018-05-03T20:31:36.645Z,59.25
2018-05-03T20:34:04.264Z,59.12
2018-05-03T20:36:31.887Z,59.11
2018-05-03T20:38:59.499Z,58.77
2018-05-03T20:41:27.060Z,58.83
2018-05-03T20:43:54.692Z,58.60
2018-05-03T20:46:22.264Z,59.18
2018-05-03T20:48:49.829Z,59.08
2018-05-03T20:51:17.470Z,59.58
2018-05-03T20:53:45.040Z,59.77
2018-05-03T20:56:12.609Z,59.90
2018-05-03T20:58:40.244Z,59.74
2018-05-03T21:01:07.866Z,59.86
2018-05-03T21:03:35.433Z,60.25
2018-05-03T21:06:02.992Z,60.65
2018-05-03T21:08:30.679Z,60.76
2018-05-03T21:10:58.236Z,60.60
2018-05-03T21:13:25.856Z,60.36
2018-05-03T21:15:53.442Z,61.06
2018-05-03T21:18:21.008Z,60.81
2018-05-03T21:20:48.585Z,60.58
2018-05-03T21:23:16.158Z,60.52
2018-05-03T21:25:43.776Z,61.14
2018-05-03T21:28:11.322Z,60.96
2018-05-03T21:30:38.887Z,60.69
2018-05-03T21:33:06.479Z,61.38
2018-05-03T21:35:34.047Z,61.16
2018-05-03T21:38:01.617Z,61.36
2018-05-03T21:40:29.241Z,61.91
2018-05-03T21:42:56.869Z,62.21
2018-05-03T21:45:24.429Z,62.47
2018-05-03T21:47:51.985Z,63.04
2018-05-03T21:50:19.552Z,63.57
2018-05-03T21:52:47.119Z,63.81
2018-05-03T21:55:14.745Z,64.28
2018-05-03T21:57:42.368Z,65.00
2018-05-03T22:00:10.041Z,65.44
2018-05-03T22:02:37.600Z,65.95
2018-05-03T22:05:05.166Z,65.98
2018-05-03T22:07:32.804Z,66.29
2018-05-03T22:10:00.365Z,66.02
2018-05-03T22:12:28.029Z,66.10
2018-05-03T22:14:55.588Z,66.15
2018-05-03T22:17:23.164Z,66.16
2018-05-03T22:19:50.733Z,65.98
2018-05-03T22:22:18.320Z,66.12
2018-05-03T22:24:45.896Z,66.21
2018-05-03T22:27:13.528Z,66.11
2018-05-03T22:29:41.160Z,66.76
2018-05-03T22:32:08.762Z,66.94
2018-05-03T22:34:36.320Z,67.11
2018-05-03T22:37:03.944Z,67.31
2018-05-03T22:39:31.562Z,67.53
2018-05-03T22:41:59.151Z,67.96
2018-05-03T22:44:26.780Z,68.13
2018-05-03T22:46:54.474Z,68.54
2018-05-03T22:49:22.131Z,68.70
2018-05-03T22:51:49.793Z,68.79
2018-05-03T22:54:17.368Z,69.06
2018-05-03T22:56:44.977Z,69.16
2018-05-03T22:59:12.552Z,69.40
2018-05-03T23:01:40.120Z,69.72
2018-05-03T23:04:07.801Z,69.85
2018-05-03T23:06:35.356Z,69.98
2018-05-03T23:09:02.982Z,69.92
2018-05-03T23:11:30.626Z,70.00
2018-05-03T23:13:58.296Z,70.53
2018-05-03T23:16:25.869Z,70.40
2018-05-03T23:18:53.432Z,70.39
2018-05-03T23:21:21.045Z,70.21
2018-05-03T23:23:48.609Z,70.41
2018-05-03T23:26:16.168Z,70.20
2018-05-03T23:28:43.796Z,70.25
2018-05-03T23:31:11.357Z,70.54
2018-05-03T23:36:12.698Z,70.56
2018-05-03T23:38:40.344Z,70.35
2018-05-03T23:41:07.904Z,70.65
2018-05-03T23:43:35.464Z,70.84
2018-05-03T23:46:03.088Z,70.70
2018-05-03T23:48:30.709Z,70.53
2018-05-03T23:50:58.334Z,70.02
2018-05-03T23:53:25.876Z,69.88
2018-05-03T23:55:53.584Z,70.10
2018-05-03T23:58:21.168Z,70.14
